sensor_id;sensor_type;location;lat;lon;timestamp;P1;durP1;ratioP1;P2;durP2;ratioP2
16784;SDS011;8509;52.178;5.404;2024-02-15T00:01:00;19.55;;;4.20;;
16784;SDS011;8509;52.178;5.404;2024-02-15T00:03:26;6.85;;;3.65;;
16784;SDS011;8509;52.178;5.404;2024-02-15T00:05:52;10.65;;;3.85;;
16784;SDS011;8509;52.178;5.404;2024-02-15T00:08:17;5.97;;;2.72;;
16784;SDS011;8509;52.178;5.404;2024-02-15T00:10:45;9.48;;;3.50;;
16784;SDS011;8509;52.178;5.404;2024-02-15T00:13:11;10.52;;;3.65;;
16784;SDS011;8509;52.178;5.404;2024-02-15T00:15:38;7.18;;;3.08;;
16784;SDS011;8509;52.178;5.404;2024-02-15T00:18:04;5.43;;;2.92;;
16784;SDS011;8509;52.178;5.404;2024-02-15T00:20:29;9.65;;;3.95;;
16784;SDS011;8509;52.178;5.404;2024-02-15T00:22:55;9.60;;;4.07;;
16784;SDS011;8509;52.178;5.404;2024-02-15T00:25:21;8.15;;;2.85;;
16784;SDS011;8509;52.178;5.404;2024-02-15T00:27:47;5.88;;;2.97;;
16784;SDS011;8509;52.178;5.404;2024-02-15T00:30:13;6.43;;;3.25;;
16784;SDS011;8509;52.178;5.404;2024-02-15T00:32:38;5.05;;;2.83;;
16784;SDS011;8509;52.178;5.404;2024-02-15T00:35:04;5.55;;;3.13;;
16784;SDS011;8509;52.178;5.404;2024-02-15T00:37:33;6.30;;;3.13;;
16784;SDS011;8509;52.178;5.404;2024-02-15T00:40:02;5.60;;;3.33;;
16784;SDS011;8509;52.178;5.404;2024-02-15T00:42:30;10.93;;;3.28;;
16784;SDS011;8509;52.178;5.404;2024-02-15T00:44:59;9.00;;;3.55;;
16784;SDS011;8509;52.178;5.404;2024-02-15T00:47:25;9.13;;;3.15;;
16784;SDS011;8509;52.178;5.404;2024-02-15T00:49:53;7.15;;;3.92;;
16784;SDS011;8509;52.178;5.404;2024-02-15T00:52:19;10.27;;;4.32;;
16784;SDS011;8509;52.178;5.404;2024-02-15T00:54:45;11.90;;;3.75;;
16784;SDS011;8509;52.178;5.404;2024-02-15T00:57:11;7.25;;;4.35;;
16784;SDS011;8509;52.178;5.404;2024-02-15T00:59:37;7.60;;;4.30;;
16784;SDS011;8509;52.178;5.404;2024-02-15T01:02:02;7.65;;;3.58;;
16784;SDS011;8509;52.178;5.404;2024-02-15T01:04:28;7.47;;;3.03;;
16784;SDS011;8509;52.178;5.404;2024-02-15T01:06:54;7.75;;;3.05;;
16784;SDS011;8509;52.178;5.404;2024-02-15T01:09:21;7.53;;;3.35;;
16784;SDS011;8509;52.178;5.404;2024-02-15T01:11:47;9.02;;;3.15;;
16784;SDS011;8509;52.178;5.404;2024-02-15T01:14:13;7.80;;;3.65;;
16784;SDS011;8509;52.178;5.404;2024-02-15T01:19:13;6.13;;;3.30;;
16784;SDS011;8509;52.178;5.404;2024-02-15T01:21:38;7.22;;;3.22;;
16784;SDS011;8509;52.178;5.404;2024-02-15T01:24:04;7.07;;;3.22;;
16784;SDS011;8509;52.178;5.404;2024-02-15T01:26:31;7.35;;;3.10;;
16784;SDS011;8509;52.178;5.404;2024-02-15T01:28:57;7.38;;;3.58;;
16784;SDS011;8509;52.178;5.404;2024-02-15T01:31:23;8.60;;;3.58;;
16784;SDS011;8509;52.178;5.404;2024-02-15T01:33:49;4.65;;;2.92;;
16784;SDS011;8509;52.178;5.404;2024-02-15T01:36:15;8.75;;;3.20;;
16784;SDS011;8509;52.178;5.404;2024-02-15T01:38:41;10.50;;;3.55;;
16784;SDS011;8509;52.178;5.404;2024-02-15T01:41:07;8.85;;;3.17;;
16784;SDS011;8509;52.178;5.404;2024-02-15T01:43:33;7.97;;;4.35;;
16784;SDS011;8509;52.178;5.404;2024-02-15T01:46:00;7.47;;;4.45;;
16784;SDS011;8509;52.178;5.404;2024-02-15T01:48:32;7.22;;;4.28;;
16784;SDS011;8509;52.178;5.404;2024-02-15T01:50:57;12.15;;;5.50;;
16784;SDS011;8509;52.178;5.404;2024-02-15T01:53:24;12.13;;;5.57;;
16784;SDS011;8509;52.178;5.404;2024-02-15T01:55:52;10.32;;;5.25;;
16784;SDS011;8509;52.178;5.404;2024-02-15T01:58:19;11.60;;;5.57;;
16784;SDS011;8509;52.178;5.404;2024-02-15T02:00:45;11.43;;;5.45;;
16784;SDS011;8509;52.178;5.404;2024-02-15T02:03:14;9.07;;;5.13;;
16784;SDS011;8509;52.178;5.404;2024-02-15T02:05:43;11.45;;;5.00;;
16784;SDS011;8509;52.178;5.404;2024-02-15T02:08:08;10.75;;;5.70;;
16784;SDS011;8509;52.178;5.404;2024-02-15T02:10:37;18.92;;;6.05;;
16784;SDS011;8509;52.178;5.404;2024-02-15T02:13:04;9.57;;;5.07;;
16784;SDS011;8509;52.178;5.404;2024-02-15T02:15:33;7.93;;;5.47;;
16784;SDS011;8509;52.178;5.404;2024-02-15T02:18:00;9.35;;;4.65;;
16784;SDS011;8509;52.178;5.404;2024-02-15T02:20:27;12.50;;;5.07;;
16784;SDS011;8509;52.178;5.404;2024-02-15T02:22:53;12.63;;;5.28;;
16784;SDS011;8509;52.178;5.404;2024-02-15T02:25:22;13.90;;;5.75;;
16784;SDS011;8509;52.178;5.404;2024-02-15T02:27:52;13.82;;;5.45;;
16784;SDS011;8509;52.178;5.404;2024-02-15T02:30:18;11.70;;;5.88;;
16784;SDS011;8509;52.178;5.404;2024-02-15T02:32:47;12.48;;;5.57;;
16784;SDS011;8509;52.178;5.404;2024-02-15T02:35:13;9.35;;;5.28;;
16784;SDS011;8509;52.178;5.404;2024-02-15T02:37:41;18.73;;;5.72;;
16784;SDS011;8509;52.178;5.404;2024-02-15T02:40:07;9.27;;;4.30;;
16784;SDS011;8509;52.178;5.404;2024-02-15T02:42:46;12.00;;;5.35;;
16784;SDS011;8509;52.178;5.404;2024-02-15T02:45:18;9.23;;;5.18;;
16784;SDS011;8509;52.178;5.404;2024-02-15T02:47:47;8.73;;;5.00;;
16784;SDS011;8509;52.178;5.404;2024-02-15T02:50:22;9.82;;;5.97;;
16784;SDS011;8509;52.178;5.404;2024-02-15T02:52:49;8.45;;;4.78;;
16784;SDS011;8509;52.178;5.404;2024-02-15T02:55:15;9.95;;;4.45;;
16784;SDS011;8509;52.178;5.404;2024-02-15T02:57:41;11.88;;;4.47;;
16784;SDS011;8509;52.178;5.404;2024-02-15T03:00:12;7.88;;;3.95;;
16784;SDS011;8509;52.178;5.404;2024-02-15T03:02:40;16.35;;;4.22;;
16784;SDS011;8509;52.178;5.404;2024-02-15T03:05:13;8.10;;;3.80;;
16784;SDS011;8509;52.178;5.404;2024-02-15T03:07:39;6.85;;;4.40;;
16784;SDS011;8509;52.178;5.404;2024-02-15T03:10:06;12.05;;;4.05;;
16784;SDS011;8509;52.178;5.404;2024-02-15T03:12:33;13.68;;;4.82;;
16784;SDS011;8509;52.178;5.404;2024-02-15T03:15:00;11.85;;;4.45;;
16784;SDS011;8509;52.178;5.404;2024-02-15T03:17:27;4.65;;;3.25;;
16784;SDS011;8509;52.178;5.404;2024-02-15T03:19:52;8.20;;;4.18;;
16784;SDS011;8509;52.178;5.404;2024-02-15T03:22:18;12.75;;;6.03;;
16784;SDS011;8509;52.178;5.404;2024-02-15T03:24:44;11.80;;;4.32;;
16784;SDS011;8509;52.178;5.404;2024-02-15T03:27:09;9.25;;;4.03;;
16784;SDS011;8509;52.178;5.404;2024-02-15T03:29:35;7.07;;;3.17;;
16784;SDS011;8509;52.178;5.404;2024-02-15T03:32:01;7.22;;;3.80;;
16784;SDS011;8509;52.178;5.404;2024-02-15T03:34:29;7.43;;;4.10;;
16784;SDS011;8509;52.178;5.404;2024-02-15T03:36:56;9.77;;;4.10;;
16784;SDS011;8509;52.178;5.404;2024-02-15T03:39:22;5.43;;;3.47;;
16784;SDS011;8509;52.178;5.404;2024-02-15T03:41:49;10.48;;;3.80;;
16784;SDS011;8509;52.178;5.404;2024-02-15T03:44:15;8.38;;;3.58;;
16784;SDS011;8509;52.178;5.404;2024-02-15T03:46:43;6.15;;;3.65;;
16784;SDS011;8509;52.178;5.404;2024-02-15T03:49:15;5.72;;;2.88;;
16784;SDS011;8509;52.178;5.404;2024-02-15T03:51:42;8.93;;;3.60;;
16784;SDS011;8509;52.178;5.404;2024-02-15T03:54:08;12.00;;;4.32;;
16784;SDS011;8509;52.178;5.404;2024-02-15T03:56:34;6.20;;;3.30;;
16784;SDS011;8509;52.178;5.404;2024-02-15T03:59:01;6.13;;;3.15;;
16784;SDS011;8509;52.178;5.404;2024-02-15T04:01:29;7.57;;;3.33;;
16784;SDS011;8509;52.178;5.404;2024-02-15T04:03:58;14.98;;;4.15;;
16784;SDS011;8509;52.178;5.404;2024-02-15T04:06:25;7.60;;;3.20;;
16784;SDS011;8509;52.178;5.404;2024-02-15T04:08:53;9.63;;;3.72;;
16784;SDS011;8509;52.178;5.404;2024-02-15T04:11:19;7.88;;;3.38;;
16784;SDS011;8509;52.178;5.404;2024-02-15T04:13:45;8.38;;;3.15;;
16784;SDS011;8509;52.178;5.404;2024-02-15T04:16:10;6.50;;;3.78;;
16784;SDS011;8509;52.178;5.404;2024-02-15T04:18:36;7.45;;;3.65;;
16784;SDS011;8509;52.178;5.404;2024-02-15T04:21:03;7.82;;;3.67;;
16784;SDS011;8509;52.178;5.404;2024-02-15T04:23:31;6.60;;;2.97;;
16784;SDS011;8509;52.178;5.404;2024-02-15T04:25:56;6.47;;;2.97;;
16784;SDS011;8509;52.178;5.404;2024-02-15T04:28:24;6.60;;;2.63;;
16784;SDS011;8509;52.178;5.404;2024-02-15T04:30:50;4.82;;;2.70;;
16784;SDS011;8509;52.178;5.404;2024-02-15T04:33:16;9.63;;;3.05;;
16784;SDS011;8509;52.178;5.404;2024-02-15T04:35:42;6.53;;;3.10;;
16784;SDS011;8509;52.178;5.404;2024-02-15T04:38:08;9.10;;;3.17;;
16784;SDS011;8509;52.178;5.404;2024-02-15T04:40:34;10.48;;;3.53;;
16784;SDS011;8509;52.178;5.404;2024-02-15T04:43:02;8.10;;;3.60;;
16784;SDS011;8509;52.178;5.404;2024-02-15T04:45:29;6.10;;;3.05;;
16784;SDS011;8509;52.178;5.404;2024-02-15T04:47:56;8.57;;;2.30;;
16784;SDS011;8509;52.178;5.404;2024-02-15T04:50:26;6.70;;;2.95;;
16784;SDS011;8509;52.178;5.404;2024-02-15T04:52:52;9.95;;;3.58;;
16784;SDS011;8509;52.178;5.404;2024-02-15T04:55:18;8.10;;;3.60;;
16784;SDS011;8509;52.178;5.404;2024-02-15T04:57:44;6.28;;;2.85;;
16784;SDS011;8509;52.178;5.404;2024-02-15T05:00:14;7.55;;;3.17;;
16784;SDS011;8509;52.178;5.404;2024-02-15T05:02:40;6.47;;;3.35;;
16784;SDS011;8509;52.178;5.404;2024-02-15T05:05:08;8.18;;;3.63;;
16784;SDS011;8509;52.178;5.404;2024-02-15T05:07:35;13.10;;;3.78;;
16784;SDS011;8509;52.178;5.404;2024-02-15T05:10:04;9.20;;;3.70;;
16784;SDS011;8509;52.178;5.404;2024-02-15T05:12:31;9.73;;;3.33;;
16784;SDS011;8509;52.178;5.404;2024-02-15T05:14:58;14.43;;;4.38;;
16784;SDS011;8509;52.178;5.404;2024-02-15T05:17:34;5.22;;;3.15;;
16784;SDS011;8509;52.178;5.404;2024-02-15T05:20:01;6.47;;;3.40;;
16784;SDS011;8509;52.178;5.404;2024-02-15T05:22:35;11.60;;;3.80;;
16784;SDS011;8509;52.178;5.404;2024-02-15T05:25:01;10.52;;;4.28;;
16784;SDS011;8509;52.178;5.404;2024-02-15T05:27:27;7.72;;;4.03;;
16784;SDS011;8509;52.178;5.404;2024-02-15T05:29:52;12.18;;;4.10;;
16784;SDS011;8509;52.178;5.404;2024-02-15T05:32:18;11.73;;;4.00;;
16784;SDS011;8509;52.178;5.404;2024-02-15T05:34:45;6.53;;;3.80;;
16784;SDS011;8509;52.178;5.404;2024-02-15T05:37:12;7.43;;;3.92;;
16784;SDS011;8509;52.178;5.404;2024-02-15T05:39:39;7.90;;;3.95;;
16784;SDS011;8509;52.178;5.404;2024-02-15T05:42:05;9.77;;;4.70;;
16784;SDS011;8509;52.178;5.404;2024-02-15T05:44:30;6.60;;;3.92;;
16784;SDS011;8509;52.178;5.404;2024-02-15T05:46:56;7.05;;;3.45;;
16784;SDS011;8509;52.178;5.404;2024-02-15T05:49:22;6.97;;;3.55;;
16784;SDS011;8509;52.178;5.404;2024-02-15T05:51:49;7.88;;;4.25;;
16784;SDS011;8509;52.178;5.404;2024-02-15T05:54:14;6.45;;;3.70;;
16784;SDS011;8509;52.178;5.404;2024-02-15T05:56:41;9.68;;;4.38;;
16784;SDS011;8509;52.178;5.404;2024-02-15T05:59:08;3.63;;;2.95;;
16784;SDS011;8509;52.178;5.404;2024-02-15T06:01:35;5.47;;;3.63;;
16784;SDS011;8509;52.178;5.404;2024-02-15T06:04:05;7.35;;;3.65;;
16784;SDS011;8509;52.178;5.404;2024-02-15T06:06:36;10.85;;;4.18;;
16784;SDS011;8509;52.178;5.404;2024-02-15T06:09:03;7.28;;;4.00;;
16784;SDS011;8509;52.178;5.404;2024-02-15T06:11:29;10.43;;;4.15;;
16784;SDS011;8509;52.178;5.404;2024-02-15T06:13:55;6.97;;;3.97;;
16784;SDS011;8509;52.178;5.404;2024-02-15T06:16:21;8.85;;;4.15;;
16784;SDS011;8509;52.178;5.404;2024-02-15T06:18:47;7.28;;;3.92;;
16784;SDS011;8509;52.178;5.404;2024-02-15T06:21:13;5.53;;;3.63;;
16784;SDS011;8509;52.178;5.404;2024-02-15T06:23:38;4.15;;;3.10;;
16784;SDS011;8509;52.178;5.404;2024-02-15T06:26:04;5.15;;;3.78;;
16784;SDS011;8509;52.178;5.404;2024-02-15T06:28:30;5.68;;;3.47;;
16784;SDS011;8509;52.178;5.404;2024-02-15T06:31:16;6.35;;;3.75;;
16784;SDS011;8509;52.178;5.404;2024-02-15T06:34:00;5.80;;;3.55;;
16784;SDS011;8509;52.178;5.404;2024-02-15T06:36:52;6.63;;;4.15;;
16784;SDS011;8509;52.178;5.404;2024-02-15T06:39:37;8.15;;;3.92;;
16784;SDS011;8509;52.178;5.404;2024-02-15T06:42:05;5.72;;;3.38;;
16784;SDS011;8509;52.178;5.404;2024-02-15T06:44:40;8.25;;;3.60;;
16784;SDS011;8509;52.178;5.404;2024-02-15T06:47:07;6.50;;;4.10;;
16784;SDS011;8509;52.178;5.404;2024-02-15T06:49:38;5.22;;;3.47;;
16784;SDS011;8509;52.178;5.404;2024-02-15T06:52:08;7.50;;;4.07;;
16784;SDS011;8509;52.178;5.404;2024-02-15T06:54:34;6.45;;;4.05;;
16784;SDS011;8509;52.178;5.404;2024-02-15T06:57:01;7.80;;;4.03;;
16784;SDS011;8509;52.178;5.404;2024-02-15T06:59:27;9.80;;;4.28;;
16784;SDS011;8509;52.178;5.404;2024-02-15T07:01:53;6.47;;;3.58;;
16784;SDS011;8509;52.178;5.404;2024-02-15T07:04:20;6.75;;;3.85;;
16784;SDS011;8509;52.178;5.404;2024-02-15T07:06:46;10.02;;;5.18;;
16784;SDS011;8509;52.178;5.404;2024-02-15T07:09:13;7.47;;;4.90;;
16784;SDS011;8509;52.178;5.404;2024-02-15T07:11:46;7.47;;;4.32;;
16784;SDS011;8509;52.178;5.404;2024-02-15T07:14:12;6.75;;;4.25;;
16784;SDS011;8509;52.178;5.404;2024-02-15T07:16:38;5.97;;;4.28;;
16784;SDS011;8509;52.178;5.404;2024-02-15T07:19:14;6.50;;;4.78;;
16784;SDS011;8509;52.178;5.404;2024-02-15T07:21:40;9.82;;;4.65;;
16784;SDS011;8509;52.178;5.404;2024-02-15T07:24:06;7.57;;;5.28;;
16784;SDS011;8509;52.178;5.404;2024-02-15T07:26:32;6.05;;;4.03;;
16784;SDS011;8509;52.178;5.404;2024-02-15T07:29:00;6.53;;;4.07;;
16784;SDS011;8509;52.178;5.404;2024-02-15T07:31:29;10.30;;;3.72;;
16784;SDS011;8509;52.178;5.404;2024-02-15T07:33:54;5.60;;;3.33;;
16784;SDS011;8509;52.178;5.404;2024-02-15T07:36:20;11.73;;;4.90;;
16784;SDS011;8509;52.178;5.404;2024-02-15T07:38:47;5.78;;;3.60;;
16784;SDS011;8509;52.178;5.404;2024-02-15T07:41:14;4.50;;;3.30;;
16784;SDS011;8509;52.178;5.404;2024-02-15T07:43:40;8.73;;;4.47;;
16784;SDS011;8509;52.178;5.404;2024-02-15T07:46:06;8.45;;;4.22;;
16784;SDS011;8509;52.178;5.404;2024-02-15T07:48:32;4.72;;;3.53;;
16784;SDS011;8509;52.178;5.404;2024-02-15T07:50:58;5.35;;;3.45;;
16784;SDS011;8509;52.178;5.404;2024-02-15T07:53:24;5.68;;;3.10;;
16784;SDS011;8509;52.178;5.404;2024-02-15T07:55:50;6.32;;;3.63;;
16784;SDS011;8509;52.178;5.404;2024-02-15T07:58:15;8.10;;;3.42;;
16784;SDS011;8509;52.178;5.404;2024-02-15T08:00:43;5.60;;;3.58;;
16784;SDS011;8509;52.178;5.404;2024-02-15T08:03:15;4.13;;;2.30;;
16784;SDS011;8509;52.178;5.404;2024-02-15T08:05:41;3.80;;;2.67;;
16784;SDS011;8509;52.178;5.404;2024-02-15T08:08:06;4.38;;;2.22;;
16784;SDS011;8509;52.178;5.404;2024-02-15T08:10:32;5.00;;;1.88;;
16784;SDS011;8509;52.178;5.404;2024-02-15T08:12:58;2.78;;;2.15;;
16784;SDS011;8509;52.178;5.404;2024-02-15T08:15:24;2.63;;;1.73;;
16784;SDS011;8509;52.178;5.404;2024-02-15T08:17:52;2.88;;;1.73;;
16784;SDS011;8509;52.178;5.404;2024-02-15T08:20:20;2.70;;;1.70;;
16784;SDS011;8509;52.178;5.404;2024-02-15T08:22:49;2.40;;;1.90;;
16784;SDS011;8509;52.178;5.404;2024-02-15T08:25:14;2.00;;;1.42;;
16784;SDS011;8509;52.178;5.404;2024-02-15T08:27:43;2.42;;;1.50;;
16784;SDS011;8509;52.178;5.404;2024-02-15T08:30:12;1.67;;;1.35;;
16784;SDS011;8509;52.178;5.404;2024-02-15T08:32:42;2.15;;;1.75;;
16784;SDS011;8509;52.178;5.404;2024-02-15T08:35:09;2.53;;;1.55;;
16784;SDS011;8509;52.178;5.404;2024-02-15T08:37:36;2.25;;;1.55;;
16784;SDS011;8509;52.178;5.404;2024-02-15T08:40:03;1.88;;;1.40;;
16784;SDS011;8509;52.178;5.404;2024-02-15T08:42:30;2.15;;;1.65;;
16784;SDS011;8509;52.178;5.404;2024-02-15T08:44:57;1.73;;;1.05;;
16784;SDS011;8509;52.178;5.404;2024-02-15T08:47:24;1.50;;;1.25;;
16784;SDS011;8509;52.178;5.404;2024-02-15T08:49:49;2.10;;;1.30;;
16784;SDS011;8509;52.178;5.404;2024-02-15T08:52:15;2.70;;;1.27;;
16784;SDS011;8509;52.178;5.404;2024-02-15T08:54:43;1.50;;;1.40;;
16784;SDS011;8509;52.178;5.404;2024-02-15T08:57:14;3.70;;;1.20;;
16784;SDS011;8509;52.178;5.404;2024-02-15T08:59:42;1.52;;;0.93;;
16784;SDS011;8509;52.178;5.404;2024-02-15T09:02:10;1.05;;;0.93;;
16784;SDS011;8509;52.178;5.404;2024-02-15T09:04:39;1.52;;;1.20;;
16784;SDS011;8509;52.178;5.404;2024-02-15T09:07:06;1.33;;;1.23;;
16784;SDS011;8509;52.178;5.404;2024-02-15T09:09:32;1.33;;;1.20;;
16784;SDS011;8509;52.178;5.404;2024-02-15T09:12:01;1.33;;;1.02;;
16784;SDS011;8509;52.178;5.404;2024-02-15T09:14:33;1.40;;;1.30;;
16784;SDS011;8509;52.178;5.404;2024-02-15T09:17:01;2.90;;;1.35;;
16784;SDS011;8509;52.178;5.404;2024-02-15T09:19:33;2.08;;;0.95;;
16784;SDS011;8509;52.178;5.404;2024-02-15T09:22:15;3.38;;;1.27;;
16784;SDS011;8509;52.178;5.404;2024-02-15T09:24:54;0.90;;;0.75;;
16784;SDS011;8509;52.178;5.404;2024-02-15T09:27:22;1.73;;;1.13;;
16784;SDS011;8509;52.178;5.404;2024-02-15T09:30:23;4.38;;;1.77;;
16784;SDS011;8509;52.178;5.404;2024-02-15T09:32:59;2.90;;;1.40;;
16784;SDS011;8509;52.178;5.404;2024-02-15T09:35:38;4.90;;;2.10;;
16784;SDS011;8509;52.178;5.404;2024-02-15T09:38:10;1.92;;;1.55;;
16784;SDS011;8509;52.178;5.404;2024-02-15T09:40:59;2.03;;;1.40;;
16784;SDS011;8509;52.178;5.404;2024-02-15T09:43:28;4.35;;;2.13;;
16784;SDS011;8509;52.178;5.404;2024-02-15T09:46:06;3.17;;;1.75;;
16784;SDS011;8509;52.178;5.404;2024-02-15T09:48:35;2.92;;;1.85;;
16784;SDS011;8509;52.178;5.404;2024-02-15T09:51:05;3.10;;;1.45;;
16784;SDS011;8509;52.178;5.404;2024-02-15T09:53:33;3.97;;;1.85;;
16784;SDS011;8509;52.178;5.404;2024-02-15T09:56:02;4.60;;;1.80;;
16784;SDS011;8509;52.178;5.404;2024-02-15T09:58:34;5.00;;;1.75;;
16784;SDS011;8509;52.178;5.404;2024-02-15T10:01:03;1.50;;;1.33;;
16784;SDS011;8509;52.178;5.404;2024-02-15T10:03:34;2.67;;;1.85;;
16784;SDS011;8509;52.178;5.404;2024-02-15T10:06:03;7.45;;;2.38;;
16784;SDS011;8509;52.178;5.404;2024-02-15T10:08:29;2.30;;;2.08;;
16784;SDS011;8509;52.178;5.404;2024-02-15T10:11:10;2.95;;;2.40;;
16784;SDS011;8509;52.178;5.404;2024-02-15T10:13:36;4.28;;;1.58;;
16784;SDS011;8509;52.178;5.404;2024-02-15T10:16:18;5.93;;;1.73;;
16784;SDS011;8509;52.178;5.404;2024-02-15T10:18:44;2.40;;;1.80;;
16784;SDS011;8509;52.178;5.404;2024-02-15T10:21:33;3.85;;;2.10;;
16784;SDS011;8509;52.178;5.404;2024-02-15T10:24:06;3.75;;;2.05;;
16784;SDS011;8509;52.178;5.404;2024-02-15T10:26:34;4.18;;;2.20;;
16784;SDS011;8509;52.178;5.404;2024-02-15T10:29:07;5.80;;;2.13;;
16784;SDS011;8509;52.178;5.404;2024-02-15T10:31:34;5.72;;;2.03;;
16784;SDS011;8509;52.178;5.404;2024-02-15T10:34:05;3.97;;;2.55;;
16784;SDS011;8509;52.178;5.404;2024-02-15T10:36:32;7.03;;;2.22;;
16784;SDS011;8509;52.178;5.404;2024-02-15T10:39:15;6.53;;;2.72;;
16784;SDS011;8509;52.178;5.404;2024-02-15T10:41:51;5.63;;;3.00;;
16784;SDS011;8509;52.178;5.404;2024-02-15T10:44:22;8.68;;;3.28;;
16784;SDS011;8509;52.178;5.404;2024-02-15T10:46:52;6.28;;;2.55;;
16784;SDS011;8509;52.178;5.404;2024-02-15T10:51:46;3.45;;;2.28;;
16784;SDS011;8509;52.178;5.404;2024-02-15T10:54:55;8.38;;;2.92;;
16784;SDS011;8509;52.178;5.404;2024-02-15T10:57:28;5.20;;;2.22;;
16784;SDS011;8509;52.178;5.404;2024-02-15T10:59:56;5.95;;;2.03;;
16784;SDS011;8509;52.178;5.404;2024-02-15T11:02:27;3.35;;;1.80;;
16784;SDS011;8509;52.178;5.404;2024-02-15T11:04:55;5.45;;;2.17;;
16784;SDS011;8509;52.178;5.404;2024-02-15T11:07:28;4.32;;;2.17;;
16784;SDS011;8509;52.178;5.404;2024-02-15T11:09:55;6.10;;;2.00;;
16784;SDS011;8509;52.178;5.404;2024-02-15T11:12:22;8.52;;;2.90;;
16784;SDS011;8509;52.178;5.404;2024-02-15T11:14:54;5.82;;;2.42;;
16784;SDS011;8509;52.178;5.404;2024-02-15T11:20:05;5.53;;;1.83;;
16784;SDS011;8509;52.178;5.404;2024-02-15T11:22:36;2.67;;;2.20;;
16784;SDS011;8509;52.178;5.404;2024-02-15T11:25:03;3.38;;;2.00;;
16784;SDS011;8509;52.178;5.404;2024-02-15T11:27:40;3.95;;;2.47;;
16784;SDS011;8509;52.178;5.404;2024-02-15T11:30:06;3.65;;;2.22;;
16784;SDS011;8509;52.178;5.404;2024-02-15T11:32:38;5.70;;;2.10;;
16784;SDS011;8509;52.178;5.404;2024-02-15T11:35:18;7.20;;;2.85;;
16784;SDS011;8509;52.178;5.404;2024-02-15T11:40:24;3.92;;;2.58;;
16784;SDS011;8509;52.178;5.404;2024-02-15T11:42:57;2.80;;;2.45;;
16784;SDS011;8509;52.178;5.404;2024-02-15T11:45:29;4.68;;;2.97;;
16784;SDS011;8509;52.178;5.404;2024-02-15T11:48:08;4.00;;;2.65;;
16784;SDS011;8509;52.178;5.404;2024-02-15T11:50:38;4.07;;;2.25;;
16784;SDS011;8509;52.178;5.404;2024-02-15T11:55:48;5.18;;;3.03;;
16784;SDS011;8509;52.178;5.404;2024-02-15T11:58:37;5.40;;;3.30;;
16784;SDS011;8509;52.178;5.404;2024-02-15T12:01:17;4.28;;;2.83;;
16784;SDS011;8509;52.178;5.404;2024-02-15T12:04:02;8.55;;;3.83;;
16784;SDS011;8509;52.178;5.404;2024-02-15T12:06:46;4.60;;;3.13;;
16784;SDS011;8509;52.178;5.404;2024-02-15T12:09:31;4.97;;;2.50;;
16784;SDS011;8509;52.178;5.404;2024-02-15T12:12:15;5.00;;;3.53;;
16784;SDS011;8509;52.178;5.404;2024-02-15T12:15:02;4.65;;;2.75;;
16784;SDS011;8509;52.178;5.404;2024-02-15T12:17:47;13.35;;;2.35;;
16784;SDS011;8509;52.178;5.404;2024-02-15T12:20:32;3.75;;;2.40;;
16784;SDS011;8509;52.178;5.404;2024-02-15T12:22:58;2.85;;;2.00;;
16784;SDS011;8509;52.178;5.404;2024-02-15T12:25:25;3.95;;;2.53;;
16784;SDS011;8509;52.178;5.404;2024-02-15T12:27:55;6.88;;;2.97;;
16784;SDS011;8509;52.178;5.404;2024-02-15T12:30:23;4.30;;;2.83;;
16784;SDS011;8509;52.178;5.404;2024-02-15T12:32:50;5.35;;;2.92;;
16784;SDS011;8509;52.178;5.404;2024-02-15T12:37:45;3.30;;;2.30;;
16784;SDS011;8509;52.178;5.404;2024-02-15T12:40:30;2.97;;;2.17;;
16784;SDS011;8509;52.178;5.404;2024-02-15T12:42:57;3.80;;;2.55;;
16784;SDS011;8509;52.178;5.404;2024-02-15T12:45:28;4.95;;;1.98;;
16784;SDS011;8509;52.178;5.404;2024-02-15T12:47:54;3.13;;;1.98;;
16784;SDS011;8509;52.178;5.404;2024-02-15T12:50:29;4.13;;;2.30;;
16784;SDS011;8509;52.178;5.404;2024-02-15T12:52:56;4.25;;;2.10;;
16784;SDS011;8509;52.178;5.404;2024-02-15T12:55:28;3.25;;;2.17;;
16784;SDS011;8509;52.178;5.404;2024-02-15T12:57:59;3.15;;;1.83;;
16784;SDS011;8509;52.178;5.404;2024-02-15T13:00:28;2.38;;;1.73;;
16784;SDS011;8509;52.178;5.404;2024-02-15T13:02:58;5.18;;;2.00;;
16784;SDS011;8509;52.178;5.404;2024-02-15T13:05:28;3.92;;;2.05;;
16784;SDS011;8509;52.178;5.404;2024-02-15T13:08:01;3.95;;;2.33;;
16784;SDS011;8509;52.178;5.404;2024-02-15T13:10:28;3.33;;;2.30;;
16784;SDS011;8509;52.178;5.404;2024-02-15T13:12:55;2.85;;;2.40;;
16784;SDS011;8509;52.178;5.404;2024-02-15T13:15:21;3.40;;;1.67;;
16784;SDS011;8509;52.178;5.404;2024-02-15T13:17:52;5.45;;;1.80;;
16784;SDS011;8509;52.178;5.404;2024-02-15T13:20:22;2.60;;;1.55;;
16784;SDS011;8509;52.178;5.404;2024-02-15T13:23:07;2.47;;;1.70;;
16784;SDS011;8509;52.178;5.404;2024-02-15T13:25:37;1.35;;;1.25;;
16784;SDS011;8509;52.178;5.404;2024-02-15T13:28:08;3.75;;;1.30;;
16784;SDS011;8509;52.178;5.404;2024-02-15T13:30:38;2.38;;;1.38;;
16784;SDS011;8509;52.178;5.404;2024-02-15T13:33:04;2.08;;;1.60;;
16784;SDS011;8509;52.178;5.404;2024-02-15T13:35:31;1.88;;;1.38;;
16784;SDS011;8509;52.178;5.404;2024-02-15T13:37:57;1.42;;;1.10;;
16784;SDS011;8509;52.178;5.404;2024-02-15T13:40:23;2.67;;;1.20;;
16784;SDS011;8509;52.178;5.404;2024-02-15T13:42:57;4.68;;;1.23;;
16784;SDS011;8509;52.178;5.404;2024-02-15T13:47:57;1.40;;;1.10;;
16784;SDS011;8509;52.178;5.404;2024-02-15T13:50:25;1.92;;;0.80;;
16784;SDS011;8509;52.178;5.404;2024-02-15T13:52:53;3.30;;;1.50;;
16784;SDS011;8509;52.178;5.404;2024-02-15T13:55:19;3.58;;;1.08;;
16784;SDS011;8509;52.178;5.404;2024-02-15T13:57:47;1.55;;;0.98;;
16784;SDS011;8509;52.178;5.404;2024-02-15T14:00:14;1.65;;;1.05;;
16784;SDS011;8509;52.178;5.404;2024-02-15T14:02:53;2.92;;;0.95;;
16784;SDS011;8509;52.178;5.404;2024-02-15T14:05:20;1.77;;;0.95;;
16784;SDS011;8509;52.178;5.404;2024-02-15T14:07:50;1.67;;;0.80;;
16784;SDS011;8509;52.178;5.404;2024-02-15T14:10:19;2.35;;;0.90;;
16784;SDS011;8509;52.178;5.404;2024-02-15T14:12:46;1.42;;;1.13;;
16784;SDS011;8509;52.178;5.404;2024-02-15T14:15:13;2.88;;;1.30;;
16784;SDS011;8509;52.178;5.404;2024-02-15T14:17:40;1.38;;;1.27;;
16784;SDS011;8509;52.178;5.404;2024-02-15T14:20:06;1.13;;;1.02;;
16784;SDS011;8509;52.178;5.404;2024-02-15T14:22:38;1.50;;;1.05;;
16784;SDS011;8509;52.178;5.404;2024-02-15T14:25:11;0.68;;;0.68;;
16784;SDS011;8509;52.178;5.404;2024-02-15T14:27:44;2.67;;;0.90;;
16784;SDS011;8509;52.178;5.404;2024-02-15T14:30:10;2.30;;;1.05;;
16784;SDS011;8509;52.178;5.404;2024-02-15T14:32:54;2.25;;;1.20;;
16784;SDS011;8509;52.178;5.404;2024-02-15T14:35:33;2.28;;;1.08;;
16784;SDS011;8509;52.178;5.404;2024-02-15T14:38:21;1.42;;;0.88;;
16784;SDS011;8509;52.178;5.404;2024-02-15T14:40:48;2.78;;;1.33;;
16784;SDS011;8509;52.178;5.404;2024-02-15T14:43:23;2.13;;;1.58;;
16784;SDS011;8509;52.178;5.404;2024-02-15T14:45:50;2.42;;;1.30;;
16784;SDS011;8509;52.178;5.404;2024-02-15T14:48:16;2.20;;;1.58;;
16784;SDS011;8509;52.178;5.404;2024-02-15T14:50:43;2.10;;;1.60;;
16784;SDS011;8509;52.178;5.404;2024-02-15T14:53:09;5.03;;;1.45;;
16784;SDS011;8509;52.178;5.404;2024-02-15T14:55:35;3.42;;;1.10;;
16784;SDS011;8509;52.178;5.404;2024-02-15T14:58:04;1.08;;;0.93;;
16784;SDS011;8509;52.178;5.404;2024-02-15T15:00:41;3.05;;;1.10;;
16784;SDS011;8509;52.178;5.404;2024-02-15T15:03:09;1.88;;;1.08;;
16784;SDS011;8509;52.178;5.404;2024-02-15T15:05:39;1.80;;;0.88;;
16784;SDS011;8509;52.178;5.404;2024-02-15T15:08:24;4.25;;;1.05;;
16784;SDS011;8509;52.178;5.404;2024-02-15T15:11:09;2.22;;;1.00;;
16784;SDS011;8509;52.178;5.404;2024-02-15T15:13:53;2.65;;;1.10;;
16784;SDS011;8509;52.178;5.404;2024-02-15T15:16:19;0.77;;;0.77;;
16784;SDS011;8509;52.178;5.404;2024-02-15T15:18:50;2.72;;;1.55;;
16784;SDS011;8509;52.178;5.404;2024-02-15T15:21:17;3.22;;;1.10;;
16784;SDS011;8509;52.178;5.404;2024-02-15T15:23:43;3.55;;;1.13;;
16784;SDS011;8509;52.178;5.404;2024-02-15T15:26:10;1.35;;;0.95;;
16784;SDS011;8509;52.178;5.404;2024-02-15T15:28:39;2.97;;;1.00;;
16784;SDS011;8509;52.178;5.404;2024-02-15T15:31:05;1.48;;;1.35;;